Time;durP1;ratioP1;P1;durP2;ratioP2;P2;SDS_P1;SDS_P2;PMS_P1;PMS_P2;Temp;Humidity;BMP_temperature;BMP_pressure;BME280_temperature;BME280_humidity;BME280_pressure;Samples;Min_cycle;Max_cycle;Signal;HPM_P1;HPM_P2
2023/08/29 00:00:15;;;;;;;;;4.33;4.00;;;;;19.66;68.29;100501.78;5086877;27;46223;-76
2023/08/29 00:02:41;;;;;;;;;8.00;7.00;;;;;19.72;68.14;100500.88;5066049;28;45624;-75
2023/08/29 00:05:08;;;;;;;;;4.33;4.00;;;;;19.62;67.85;100477.06;5088514;27;45452;-77
2023/08/29 00:07:34;;;;;;;;;6.00;3.67;;;;;19.69;68.02;100488.47;5061573;28;45622;-76
2023/08/29 00:10:00;;;;;;;;;4.00;3.00;;;;;19.73;68.08;100500.84;5051848;27;45532;-80
2023/08/29 00:12:25;;;;;;;;;3.67;2.67;;;;;19.78;68.53;100503.47;5065944;27;45567;-75
2023/08/29 00:14:51;;;;;;;;;8.00;5.00;;;;;19.81;68.18;100500.78;5085367;27;45554;-76
2023/08/29 00:17:16;;;;;;;;;5.67;3.33;;;;;19.83;67.89;100496.34;5082499;27;45521;-76
2023/08/29 00:19:42;;;;;;;;;4.67;2.67;;;;;19.80;68.03;100488.44;5077927;27;45394;-77
2023/08/29 00:22:08;;;;;;;;;6.33;4.33;;;;;19.60;68.55;100473.56;5084860;27;45359;-76
2023/08/29 00:24:34;;;;;;;;;5.67;4.67;;;;;19.74;68.71;100497.31;5081767;27;45542;-76
2023/08/29 00:26:59;;;;;;;;;2.33;2.33;;;;;19.82;67.61;100502.56;5074609;27;45585;-79
2023/08/29 00:29:26;;;;;;;;;4.33;3.67;;;;;19.92;67.25;100500.72;5054273;27;45264;-75
2023/08/29 00:31:52;;;;;;;;;5.00;4.00;;;;;19.64;67.13;100464.69;5050619;28;45359;-75
2023/08/29 00:34:18;;;;;;;;;4.67;3.67;;;;;19.84;69.01;100509.59;5074483;27;45755;-76
2023/08/29 00:36:43;;;;;;;;;3.67;3.33;;;;;19.76;68.93;100505.25;5077048;27;45525;-76
2023/08/29 00:39:09;;;;;;;;;3.67;3.33;;;;;19.65;69.16;100503.53;5086218;27;47073;-75
2023/08/29 00:41:35;;;;;;;;;2.67;2.67;;;;;19.62;68.76;100492.09;5067266;27;45475;-76
2023/08/29 00:44:00;;;;;;;;;4.00;3.00;;;;;19.67;69.14;100493.78;5078633;28;45322;-76
2023/08/29 00:46:27;;;;;;;;;4.00;3.33;;;;;19.73;69.15;100500.84;5078870;28;45451;-76
2023/08/29 00:48:54;;;;;;;;;4.67;4.33;;;;;19.85;68.67;100498.09;5067816;28;45398;-76
2023/08/29 00:51:20;;;;;;;;;4.33;2.67;;;;;19.89;69.26;100501.59;5059310;28;45439;-82
2023/08/29 00:53:47;;;;;;;;;5.33;3.67;;;;;19.85;68.76;100479.53;5045967;28;45623;-76
2023/08/29 00:56:17;;;;;;;;;4.67;4.33;;;;;19.94;68.22;100472.41;5059084;28;45367;-76
2023/08/29 00:58:43;;;;;;;;;4.00;3.00;;;;;20.00;68.61;100475.88;5059268;28;45197;-76
2023/08/29 01:01:10;;;;;;;;;4.33;3.33;;;;;20.00;68.67;100478.53;5059125;28;45466;-75
2023/08/29 01:03:36;;;;;;;;;5.00;4.67;;;;;20.12;68.58;100495.22;5039570;28;45423;-75
2023/08/29 01:06:01;;;;;;;;;3.67;3.67;;;;;20.11;68.82;100483.69;5058958;28;45442;-75
2023/08/29 01:08:27;;;;;;;;;6.67;5.67;;;;;20.05;68.15;100475.81;5058394;28;47022;-78
2023/08/29 01:11:24;;;;;;;;;5.33;3.33;;;;;20.03;67.87;100467.91;5058301;28;46036;-78
2023/08/29 01:14:08;;;;;;;;;5.00;3.67;;;;;20.12;67.98;100477.53;5059146;28;45490;-75
2023/08/29 01:16:40;;;;;;;;;4.67;4.00;;;;;19.85;67.88;100436.25;5058607;28;45477;-75
2023/08/29 01:19:13;;;;;;;;;5.67;3.67;;;;;19.70;67.84;100413.41;5055205;28;45570;-76
2023/08/29 01:22:01;;;;;;;;;5.33;3.67;;;;;20.10;68.25;100484.63;5040104;28;45549;-76
2023/08/29 01:24:38;;;;;;;;;2.33;1.67;;;;;19.97;68.25;100459.09;5063477;28;45497;-76
2023/08/29 01:27:05;;;;;;;;;4.33;4.33;;;;;20.02;67.90;100475.84;5058547;28;45486;-77
2023/08/29 01:29:33;;;;;;;;;4.00;4.00;;;;;20.10;67.99;100489.03;5058019;28;46123;-75
2023/08/29 01:31:59;;;;;;;;;7.00;4.33;;;;;19.99;68.13;100463.47;5063979;28;45872;-75
2023/08/29 01:34:26;;;;;;;;;5.33;4.67;;;;;20.01;68.26;100474.97;5067487;28;45221;-76
2023/08/29 01:36:52;;;;;;;;;5.00;4.33;;;;;19.96;68.58;100463.53;5058768;28;45508;-76
2023/08/29 01:39:17;;;;;;;;;6.33;4.33;;;;;20.02;67.93;100478.50;5056485;28;45622;-76
2023/08/29 01:41:43;;;;;;;;;5.67;5.00;;;;;20.00;67.93;100461.75;5040193;28;46449;-76
2023/08/29 01:44:09;;;;;;;;;6.00;4.33;;;;;19.92;67.81;100459.16;5058234;28;45591;-76
2023/08/29 01:46:36;;;;;;;;;4.00;3.33;;;;;19.92;68.34;100469.75;5058326;28;45276;-77
2023/08/29 01:49:03;;;;;;;;;5.00;4.33;;;;;19.82;67.80;100446.88;5058308;28;45450;-75
2023/08/29 01:51:29;;;;;;;;;4.33;2.67;;;;;19.90;67.97;100460.06;5058367;28;45312;-77
2023/08/29 01:53:56;;;;;;;;;6.00;4.00;;;;;19.94;67.47;100465.31;5049943;28;45613;-76
2023/08/29 01:56:27;;;;;;;;;5.67;4.33;;;;;19.86;67.67;100456.56;5077905;27;45310;-76
2023/08/29 01:58:54;;;;;;;;;4.33;4.00;;;;;19.80;67.60;100453.97;5058934;27;45398;-76
2023/08/29 02:01:20;;;;;;;;;7.00;4.67;;;;;19.83;67.55;100451.28;5056674;28;45294;-77
2023/08/29 02:03:46;;;;;;;;;2.67;2.67;;;;;19.90;66.97;100454.78;5039831;28;45508;-76
2023/08/29 02:06:13;;;;;;;;;4.67;4.33;;;;;19.92;66.97;100459.16;5055447;28;45718;-76
2023/08/29 02:08:39;;;;;;;;;4.67;3.67;;;;;19.76;66.78;100420.44;5043657;28;46006;-75
2023/08/29 02:11:05;;;;;;;;;4.33;4.33;;;;;19.92;66.96;100443.25;5069263;28;45391;-75
2023/08/29 02:13:31;;;;;;;;;6.67;5.33;;;;;19.91;66.79;100448.56;5058131;28;45533;-75
2023/08/29 02:15:56;;;;;;;;;7.33;6.00;;;;;19.89;67.00;100453.88;5056639;28;45350;-75
2023/08/29 02:18:22;;;;;;;;;7.67;5.33;;;;;19.88;66.87;100446.84;5057826;28;45959;-76
2023/08/29 02:20:48;;;;;;;;;5.00;3.67;;;;;19.89;67.34;100447.69;5065366;28;45412;-75
2023/08/29 02:23:14;;;;;;;;;6.00;5.67;;;;;19.88;67.20;100445.97;5076085;28;45382;-75
2023/08/29 02:25:39;;;;;;;;;5.67;5.00;;;;;19.83;66.99;100435.38;5070003;28;45504;-75
2023/08/29 02:28:05;;;;;;;;;7.00;3.67;;;;;19.85;67.03;100439.75;5060004;27;45472;-75
2023/08/29 02:30:36;;;;;;;;;9.00;7.00;;;;;19.81;68.00;100430.09;5069744;28;45499;-76
2023/08/29 02:33:01;;;;;;;;;7.00;5.00;;;;;19.77;68.39;100436.31;5069041;28;45479;-75
2023/08/29 02:35:27;;;;;;;;;5.33;4.33;;;;;19.60;67.80;100406.44;5061273;28;45362;-76
2023/08/29 02:37:53;;;;;;;;;5.67;5.33;;;;;19.80;67.70;100435.44;5076621;28;46045;-76
2023/08/29 02:40:19;;;;;;;;;7.00;6.00;;;;;19.78;67.61;100435.44;5061435;28;45289;-75
2023/08/29 02:42:45;;;;;;;;;6.33;5.00;;;;;19.76;67.87;100428.41;5059739;28;45332;-75
2023/08/29 02:45:11;;;;;;;;;6.00;4.33;;;;;19.59;67.76;100391.41;5070011;28;45458;-76
2023/08/29 02:47:37;;;;;;;;;10.00;6.67;;;;;19.61;69.62;100418.78;5056993;28;45442;-76
2023/08/29 02:50:06;;;;;;;;;6.67;6.67;;;;;19.60;69.69;100425.84;5072654;28;45700;-77
2023/08/29 02:52:32;;;;;;;;;5.00;4.00;;;;;19.65;69.58;100439.06;5057521;28;45410;-76
2023/08/29 02:54:58;;;;;;;;;5.00;5.00;;;;;19.65;69.85;100418.72;5063205;27;45494;-75
2023/08/29 02:57:24;;;;;;;;;6.00;4.00;;;;;19.65;69.16;100410.78;5055568;28;46898;-77
2023/08/29 02:59:49;;;;;;;;;8.67;7.67;;;;;19.71;69.29;100408.97;5038948;28;45510;-76
2023/08/29 03:02:15;;;;;;;;;6.33;5.33;;;;;19.76;68.47;100416.03;5056618;28;45503;-76
2023/08/29 03:04:42;;;;;;;;;6.00;6.00;;;;;19.70;68.74;100394.84;5066395;28;45507;-76
2023/08/29 03:07:07;;;;;;;;;8.00;6.00;;;;;19.71;68.91;100398.38;5055588;28;45755;-75
2023/08/29 03:09:33;;;;;;;;;7.00;6.00;;;;;19.74;69.17;100398.38;5056916;28;45521;-75
2023/08/29 03:11:59;;;;;;;;;4.33;3.67;;;;;19.78;69.08;100406.28;5072648;28;45406;-76
2023/08/29 03:14:26;;;;;;;;;7.33;6.67;;;;;19.75;69.81;100402.78;5060089;28;45513;-75
2023/08/29 03:16:52;;;;;;;;;6.67;6.00;;;;;19.71;70.22;100406.31;5068987;28;45314;-75
2023/08/29 03:19:18;;;;;;;;;7.00;6.00;;;;;19.56;69.89;100396.75;5067809;28;45536;-77
2023/08/29 03:21:43;;;;;;;;;7.00;5.00;;;;;19.49;70.66;100395.91;5043157;28;45257;-76
2023/08/29 03:24:09;;;;;;;;;7.00;7.00;;;;;19.47;70.50;100389.75;5071943;28;45620;-77
2023/08/29 03:26:35;;;;;;;;;6.00;5.33;;;;;19.55;70.24;100390.56;5056856;28;46189;-76
2023/08/29 03:29:00;;;;;;;;;6.67;5.00;;;;;19.56;70.58;100387.03;5038833;28;45386;-76
2023/08/29 03:31:26;;;;;;;;;7.67;6.33;;;;;19.56;70.84;100394.97;5056628;28;45363;-75
2023/08/29 03:33:51;;;;;;;;;5.00;4.00;;;;;19.48;70.99;100376.50;5038552;28;45687;-75
2023/08/29 03:36:17;;;;;;;;;7.00;6.00;;;;;19.61;71.06;100405.53;5062742;28;45663;-75
2023/08/29 03:38:43;;;;;;;;;7.00;5.67;;;;;19.65;70.86;100399.31;5065728;28;45518;-78
2023/08/29 03:41:09;;;;;;;;;7.00;5.67;;;;;19.61;71.02;100387.84;5070873;28;45477;-78
2023/08/29 03:43:36;;;;;;;;;9.33;5.67;;;;;19.68;70.70;100396.63;5074678;27;45566;-76
2023/08/29 03:46:04;;;;;;;;;8.67;4.67;;;;;19.65;70.83;100386.03;5038585;28;47909;-75
2023/08/29 03:48:30;;;;;;;;;6.00;5.00;;;;;19.64;71.12;100400.22;5038166;28;45340;-74
2023/08/29 03:51:05;;;;;;;;;4.00;4.00;;;;;19.66;71.06;100396.66;5068226;28;45878;-75
2023/08/29 03:53:32;;;;;;;;;5.00;5.00;;;;;19.65;70.83;100394.00;5071701;28;45604;-75
2023/08/29 03:56:05;;;;;;;;;4.33;4.33;;;;;19.61;70.65;100384.31;5061895;28;46189;-74
2023/08/29 03:58:31;;;;;;;;;6.00;6.00;;;;;19.60;70.20;100388.75;5049899;28;45427;-75
2023/08/29 04:00:58;;;;;;;;;7.67;5.00;;;;;19.64;70.52;100395.78;5058231;28;45513;-75
2023/08/29 04:03:24;;;;;;;;;6.67;5.00;;;;;19.65;70.15;100402.81;5071915;28;45274;-80
2023/08/29 04:05:50;;;;;;;;;4.00;4.00;;;;;19.65;70.41;100391.34;5055939;28;45493;-75
2023/08/29 04:08:15;;;;;;;;;6.00;4.67;;;;;19.73;70.68;100396.59;5049415;28;45581;-76
2023/08/29 04:10:42;;;;;;;;;6.00;5.33;;;;;19.67;70.56;100384.25;5074286;28;45419;-76
2023/08/29 04:13:08;;;;;;;;;6.33;5.00;;;;;19.76;70.46;100394.81;5057084;28;45401;-76
2023/08/29 04:15:34;;;;;;;;;8.00;7.00;;;;;19.75;70.46;100386.88;5055832;28;45526;-75
2023/08/29 04:18:03;;;;;;;;;6.00;5.67;;;;;19.82;69.91;100383.28;5056171;28;45585;-74
2023/08/29 04:20:31;;;;;;;;;7.00;5.67;;;;;19.86;70.35;100382.34;5056249;28;45470;-75
2023/08/29 04:22:58;;;;;;;;;4.00;3.33;;;;;19.87;70.13;100389.38;5071574;28;45579;-77
2023/08/29 04:25:27;;;;;;;;;4.67;4.67;;;;;19.91;69.50;100371.69;5055928;28;45491;-74
2023/08/29 04:27:53;;;;;;;;;4.67;4.00;;;;;19.77;69.74;100369.19;5067255;27;45307;-75
2023/08/29 04:30:20;;;;;;;;;4.67;4.67;;;;;19.81;69.94;100382.38;5059843;28;45572;-75
2023/08/29 04:32:47;;;;;;;;;6.00;5.00;;;;;19.83;69.92;100385.00;5071415;28;45400;-75
2023/08/29 04:35:13;;;;;;;;;7.00;5.67;;;;;19.88;69.44;100390.28;5037112;28;45625;-75
2023/08/29 04:37:39;;;;;;;;;9.00;5.33;;;;;19.81;69.84;100385.03;5060895;28;45455;-76
2023/08/29 04:40:10;;;;;;;;;7.33;6.67;;;;;19.81;70.62;100400.06;5068719;28;45494;-75
2023/08/29 04:42:37;;;;;;;;;7.67;6.67;;;;;19.65;70.47;100373.66;5071556;28;45599;-75
2023/08/29 04:45:06;;;;;;;;;7.00;6.00;;;;;19.68;70.89;100381.59;5067739;28;46920;-78
2023/08/29 04:47:32;;;;;;;;;4.67;4.67;;;;;19.76;70.59;100378.03;5073566;28;45510;-75
2023/08/29 04:49:59;;;;;;;;;5.33;4.67;;;;;19.83;69.80;100380.59;5058914;28;45452;-74
2023/08/29 04:52:26;;;;;;;;;7.67;7.00;;;;;19.73;69.80;100346.25;5058930;28;45493;-74
2023/08/29 04:54:52;;;;;;;;;5.00;5.00;;;;;19.72;69.82;100349.81;5058283;28;45573;-75
2023/08/29 04:57:17;;;;;;;;;5.00;4.00;;;;;19.81;69.56;100358.50;5063343;28;45461;-75
2023/08/29 04:59:43;;;;;;;;;4.67;4.33;;;;;19.85;69.71;100372.63;5077650;28;45366;-75
2023/08/29 05:02:08;;;;;;;;;6.00;5.00;;;;;19.84;69.34;100365.59;5076780;27;45551;-74
2023/08/29 05:04:34;;;;;;;;;10.00;5.67;;;;;19.77;69.47;100350.63;5076495;28;47937;-78
2023/08/29 05:07:00;;;;;;;;;5.67;5.67;;;;;19.75;69.81;100350.63;5060887;28;45261;-76
2023/08/29 05:09:25;;;;;;;;;6.00;4.33;;;;;19.78;69.67;100355.91;5070575;27;45461;-75
2023/08/29 05:11:51;;;;;;;;;5.67;5.67;;;;;19.74;70.17;100355.97;5058544;28;45484;-75
2023/08/29 05:14:16;;;;;;;;;5.33;5.00;;;;;19.79;70.44;100365.59;5058125;28;47618;-75
2023/08/29 05:16:42;;;;;;;;;9.00;5.33;;;;;19.76;69.69;100356.84;5058967;28;45386;-76
2023/08/29 05:19:08;;;;;;;;;7.67;7.67;;;;;19.78;70.15;100369.16;5058655;28;45549;-78
2023/08/29 05:21:34;;;;;;;;;6.33;5.67;;;;;19.84;69.98;100381.50;5040711;28;45492;-75
2023/08/29 05:24:01;;;;;;;;;4.67;4.67;;;;;19.82;69.90;100367.38;5059974;28;46985;-77
2023/08/29 05:26:27;;;;;;;;;7.33;6.67;;;;;19.91;69.74;100382.28;5074492;28;45315;-76
2023/08/29 05:28:52;;;;;;;;;4.33;4.33;;;;;19.90;70.65;100384.06;5058158;28;45564;-76
2023/08/29 05:31:18;;;;;;;;;5.00;4.67;;;;;19.76;70.46;100359.50;5058877;28;45623;-75
2023/08/29 05:33:43;;;;;;;;;7.67;6.67;;;;;19.47;70.85;100327.03;5058501;28;45969;-77
2023/08/29 05:36:09;;;;;;;;;6.67;4.67;;;;;19.66;70.27;100351.59;5072978;28;45371;-75
2023/08/29 05:38:35;;;;;;;;;6.67;6.67;;;;;19.80;70.52;100385.06;5077562;28;45393;-76
2023/08/29 05:41:00;;;;;;;;;6.33;5.33;;;;;19.80;70.90;100385.94;5075045;28;45342;-74
2023/08/29 05:43:26;;;;;;;;;5.67;5.00;;;;;19.75;70.48;100381.56;5077087;28;45402;-75
2023/08/29 05:45:55;;;;;;;;;5.00;5.00;;;;;19.82;69.85;100388.56;5072429;27;45536;-74
2023/08/29 05:48:21;;;;;;;;;9.67;7.67;;;;;19.77;70.56;100374.47;5071384;28;45522;-74
2023/08/29 05:50:50;;;;;;;;;6.33;5.00;;;;;19.89;70.31;100379.66;5075641;28;45502;-75
2023/08/29 05:53:16;;;;;;;;;12.67;9.67;;;;;19.96;70.56;100393.72;5073674;27;45400;-74
2023/08/29 05:55:41;;;;;;;;;8.33;6.67;;;;;20.01;70.09;100384.81;5072187;28;45355;-74
2023/08/29 05:58:07;;;;;;;;;9.67;9.33;;;;;20.02;69.98;100397.19;5073908;28;45556;-74
2023/08/29 06:00:33;;;;;;;;;9.00;7.33;;;;;19.98;69.99;100382.22;5076222;27;45418;-75
2023/08/29 06:02:58;;;;;;;;;5.00;4.33;;;;;20.08;69.97;100390.06;5074714;27;45494;-77
2023/08/29 06:05:26;;;;;;;;;7.00;6.00;;;;;20.03;70.22;100406.91;5073959;28;45678;-74
2023/08/29 06:07:52;;;;;;;;;8.67;7.67;;;;;20.01;70.27;100390.09;5076392;27;46181;-74
2023/08/29 06:10:19;;;;;;;;;8.67;7.33;;;;;20.02;70.63;100397.19;5054311;28;45351;-83
2023/08/29 06:12:44;;;;;;;;;7.00;6.67;;;;;20.09;70.08;100383.84;5074493;28;45402;-74
2023/08/29 06:15:10;;;;;;;;;8.67;6.67;;;;;20.16;69.59;100404.97;5055585;28;45597;-74
2023/08/29 06:17:36;;;;;;;;;5.33;5.33;;;;;20.17;69.49;100406.72;5057889;28;45485;-74
2023/08/29 06:20:03;;;;;;;;;6.00;6.00;;;;;20.19;69.93;100412.00;5075489;28;45304;-74
2023/08/29 06:22:29;;;;;;;;;6.00;5.67;;;;;20.18;69.37;100403.19;5055272;28;46184;-74
2023/08/29 06:24:54;;;;;;;;;6.00;5.33;;;;;20.10;69.36;100393.56;5056665;28;45442;-74
2023/08/29 06:27:20;;;;;;;;;10.00;8.33;;;;;19.98;70.06;100387.50;5074916;28;45528;-75
2023/08/29 06:29:46;;;;;;;;;9.67;6.00;;;;;20.09;70.20;100402.41;5075743;28;45483;-74
2023/08/29 06:32:12;;;;;;;;;5.67;5.00;;;;;20.20;70.02;100411.13;5066187;28;46234;-75
2023/08/29 06:34:38;;;;;;;;;6.67;6.00;;;;;20.24;70.17;100404.91;5073242;28;45478;-74
2023/08/29 06:37:03;;;;;;;;;5.33;5.00;;;;;20.25;69.77;100401.31;5075439;28;46011;-75
2023/08/29 06:39:29;;;;;;;;;6.67;5.33;;;;;20.52;69.61;100423.13;5051012;28;45517;-75
2023/08/29 06:41:55;;;;;;;;;6.67;4.67;;;;;20.57;68.58;100414.22;5073388;28;45443;-75
2023/08/29 06:44:21;;;;;;;;;4.67;3.33;;;;;20.64;68.59;100401.75;5052851;28;45519;-75
2023/08/29 06:46:48;;;;;;;;;4.67;4.67;;;;;20.81;68.56;100428.06;5074774;28;45574;-77
2023/08/29 06:49:13;;;;;;;;;7.00;5.67;;;;;20.73;67.97;100401.63;5075346;27;45529;-75
2023/08/29 06:51:39;;;;;;;;;5.00;5.00;;;;;20.90;67.35;100424.41;5075027;28;45507;-75
2023/08/29 06:54:05;;;;;;;;;5.00;4.00;;;;;20.89;67.77;100426.19;5074027;27;45495;-74
2023/08/29 06:56:30;;;;;;;;;5.00;4.33;;;;;20.90;67.54;100421.75;5076328;28;45529;-74
2023/08/29 06:58:56;;;;;;;;;7.00;6.00;;;;;20.98;67.39;100423.38;5075537;28;45637;-74
2023/08/29 07:01:21;;;;;;;;;5.33;5.00;;;;;20.88;67.75;100410.28;5075689;28;46135;-75
2023/08/29 07:03:47;;;;;;;;;6.00;5.00;;;;;20.84;67.88;100431.53;5072746;28;45568;-76
2023/08/29 07:06:13;;;;;;;;;7.00;5.00;;;;;20.89;67.22;100399.66;5070096;28;45509;-81
2023/08/29 07:08:39;;;;;;;;;7.00;4.00;;;;;21.11;67.04;100407.25;5057404;28;45350;-77
2023/08/29 07:11:07;;;;;;;;;7.00;5.00;;;;;21.19;66.18;100421.31;5075653;28;45675;-77
2023/08/29 07:13:33;;;;;;;;;9.33;6.67;;;;;21.24;66.26;100422.97;5061264;27;45485;-77
2023/08/29 07:15:58;;;;;;;;;5.67;5.00;;;;;21.02;66.29;100381.72;5074658;27;45690;-75
2023/08/29 07:18:24;;;;;;;;;7.00;4.00;;;;;21.30;66.37;100413.16;5068091;28;47056;-75
2023/08/29 07:20:50;;;;;;;;;12.33;11.33;;;;;21.31;66.72;100418.47;5038351;28;46705;-75
2023/08/29 07:23:16;;;;;;;;;11.00;10.00;;;;;21.45;66.66;100419.13;5053348;28;45796;-76
2023/08/29 07:25:44;;;;;;;;;9.67;7.33;;;;;21.41;66.80;100424.50;5038359;28;45686;-76
2023/08/29 07:28:13;;;;;;;;;10.67;8.00;;;;;21.42;66.60;100426.25;5075317;27;45418;-75
2023/08/29 07:30:44;;;;;;;;;5.33;5.33;;;;;21.35;66.59;100429.94;5076019;28;45760;-75
2023/08/29 07:33:10;;;;;;;;;6.33;6.00;;;;;21.41;67.11;100443.09;5075679;28;45393;-75
2023/08/29 07:35:36;;;;;;;;;8.33;6.33;;;;;21.45;67.50;100440.41;5072227;28;45378;-77
2023/08/29 07:38:03;;;;;;;;;6.33;6.33;;;;;21.29;67.61;100414.06;5063868;28;45612;-77
2023/08/29 07:40:29;;;;;;;;;6.33;5.33;;;;;21.35;68.10;100427.28;5063904;28;45579;-76
2023/08/29 07:42:56;;;;;;;;;4.67;4.67;;;;;21.45;67.57;100440.41;5056058;28;45642;-76
2023/08/29 07:45:21;;;;;;;;;7.00;5.67;;;;;21.52;66.85;100434.97;5055916;28;45441;-75
2023/08/29 07:47:48;;;;;;;;;5.00;4.67;;;;;21.37;66.60;100398.91;5063051;28;45456;-76
2023/08/29 07:50:13;;;;;;;;;7.00;6.33;;;;;21.60;66.78;100447.22;5071891;28;45484;-77
2023/08/29 07:52:39;;;;;;;;;7.67;5.67;;;;;21.58;67.15;100433.09;5069974;28;45608;-77
2023/08/29 07:55:07;;;;;;;;;4.33;4.00;;;;;21.80;66.06;100438.03;5056328;28;45303;-77
2023/08/29 07:57:33;;;;;;;;;6.00;4.67;;;;;21.78;65.95;100423.88;5041757;28;45503;-77
2023/08/29 07:59:58;;;;;;;;;5.00;4.67;;;;;21.79;65.82;100420.34;5066119;28;45472;-78
2023/08/29 08:02:24;;;;;;;;;6.00;4.67;;;;;21.88;65.48;100419.28;5069962;27;46121;-76
2023/08/29 08:04:50;;;;;;;;;6.33;4.67;;;;;22.00;65.52;100437.66;5072213;28;45587;-75
2023/08/29 08:07:15;;;;;;;;;6.33;4.67;;;;;22.12;64.86;100447.19;5068936;27;45433;-77
2023/08/29 08:09:42;;;;;;;;;6.00;5.00;;;;;22.16;65.68;100433.81;5069630;27;45351;-75
2023/08/29 08:12:08;;;;;;;;;4.00;4.00;;;;;22.20;65.58;100426.63;5073167;27;45799;-76
2023/08/29 08:14:33;;;;;;;;;6.67;4.00;;;;;22.18;64.96;100416.03;5076541;28;45473;-76
2023/08/29 08:16:59;;;;;;;;;8.67;6.00;;;;;22.32;64.87;100442.41;5068381;27;45363;-76
2023/08/29 08:19:25;;;;;;;;;7.00;5.00;;;;;22.26;64.97;100455.81;5063527;28;46236;-75
2023/08/29 08:21:51;;;;;;;;;7.00;7.00;;;;;22.18;64.50;100445.31;5064469;27;46045;-74
2023/08/29 08:24:17;;;;;;;;;6.00;6.00;;;;;22.19;64.98;100448.84;5071520;28;45705;-75
2023/08/29 08:26:43;;;;;;;;;5.00;4.00;;;;;21.93;65.67;100434.25;5070328;27;45466;-75
2023/08/29 08:29:09;;;;;;;;;9.33;6.33;;;;;21.99;65.61;100463.38;5063202;28;45390;-75
2023/08/29 08:31:35;;;;;;;;;5.67;5.00;;;;;21.88;65.45;100451.19;5061409;27;45416;-75
2023/08/29 08:34:00;;;;;;;;;7.33;4.33;;;;;21.92;65.64;100466.19;5071449;28;45449;-75
2023/08/29 08:36:28;;;;;;;;;5.00;4.00;;;;;21.84;65.87;100453.91;5060777;27;45509;-74
2023/08/29 08:38:53;;;;;;;;;7.00;6.00;;;;;21.99;66.26;100468.72;5063330;28;45522;-75
2023/08/29 08:41:19;;;;;;;;;4.67;3.00;;;;;21.79;63.30;100436.28;5076906;27;45581;-75
2023/08/29 08:43:45;;;;;;;;;5.00;4.33;;;;;22.00;64.21;100459.84;5072248;28;45463;-75
2023/08/29 08:46:16;;;;;;;;;5.67;5.00;;;;;22.00;65.07;100441.22;5075738;27;45491;-75
2023/08/29 08:48:42;;;;;;;;;7.67;6.33;;;;;22.14;64.75;100448.91;5063452;28;46316;-75
2023/08/29 08:51:10;;;;;;;;;5.67;5.67;;;;;22.35;63.81;100462.75;5074536;27;45388;-76
2023/08/29 08:53:37;;;;;;;;;4.00;4.00;;;;;22.32;64.04;100455.72;5064709;28;45960;-75
2023/08/29 08:56:04;;;;;;;;;6.00;5.00;;;;;22.41;64.07;100465.28;5078277;27;45455;-75
2023/08/29 08:58:30;;;;;;;;;5.00;5.00;;;;;22.48;62.58;100466.03;5077647;28;46097;-75
2023/08/29 09:00:55;;;;;;;;;6.00;4.67;;;;;22.48;61.18;100447.41;5057903;28;45555;-75
2023/08/29 09:03:21;;;;;;;;;5.33;4.67;;;;;22.84;61.66;100467.94;5058432;28;45474;-75
2023/08/29 09:05:46;;;;;;;;;3.67;3.67;;;;;23.21;61.92;100458.25;5040192;28;45549;-75
2023/08/29 09:08:14;;;;;;;;;5.00;5.00;;;;;23.50;61.66;100465.56;5045215;28;46778;-75
2023/08/29 09:10:39;;;;;;;;;5.33;5.00;;;;;23.28;60.99;100467.84;5068480;28;45650;-75
2023/08/29 09:13:05;;;;;;;;;5.67;4.33;;;;;23.14;62.00;100476.19;5074285;28;45395;-74
2023/08/29 09:15:32;;;;;;;;;4.00;3.33;;;;;23.17;61.02;100470.75;5073838;28;45322;-74
2023/08/29 09:17:58;;;;;;;;;4.00;4.00;;;;;23.26;60.25;100468.78;5047792;28;45493;-74
2023/08/29 09:20:28;;;;;;;;;4.67;4.00;;;;;23.47;60.49;100478.06;5067147;28;45436;-75
2023/08/29 09:22:54;;;;;;;;;5.67;4.00;;;;;23.61;59.67;100479.47;5053642;28;45383;-75
2023/08/29 09:25:20;;;;;;;;;4.00;4.00;;;;;24.06;58.87;100434.81;5061023;28;45396;-77
2023/08/29 09:27:49;;;;;;;;;4.00;4.00;;;;;24.95;57.00;100465.16;5057512;28;48328;-77
2023/08/29 09:30:18;;;;;;;;;5.00;4.00;;;;;25.48;56.36;100439.44;5076841;27;45874;-76
2023/08/29 09:32:45;;;;;;;;;5.33;5.00;;;;;26.38;54.17;100451.47;5059701;28;45484;-77
2023/08/29 09:35:16;;;;;;;;;5.00;4.67;;;;;27.02;52.31;100452.63;5060651;28;45354;-76
2023/08/29 09:37:53;;;;;;;;;6.00;5.00;;;;;27.81;50.43;100467.28;5059277;28;46292;-76
2023/08/29 09:40:22;;;;;;;;;6.33;6.00;;;;;28.11;49.37;100458.84;5064903;28;45331;-75
2023/08/29 09:42:59;;;;;;;;;5.00;4.33;;;;;28.92;47.03;100459.66;5060820;28;45732;-76
2023/08/29 09:45:28;;;;;;;;;5.00;5.00;;;;;30.08;47.60;100450.31;5068960;28;45324;-76
2023/08/29 09:47:56;;;;;;;;;7.00;5.00;;;;;31.31;45.62;100453.47;5057366;28;46161;-75
2023/08/29 09:50:24;;;;;;;;;2.00;1.00;;;;;32.18;41.71;100447.41;5071881;28;45355;-75
2023/08/29 09:52:52;;;;;;;;;18.33;16.00;;;;;32.60;41.52;100437.59;5057079;28;45328;-74
2023/08/29 09:55:20;;;;;;;;;18.00;17.33;;;;;32.95;39.45;100450.69;5062018;28;45465;-75
2023/08/29 09:57:51;;;;;;;;;7.67;7.33;;;;;32.75;40.46;100437.56;5073375;28;46053;-75
2023/08/29 10:00:19;;;;;;;;;7.00;5.33;;;;;32.94;39.31;100446.22;5075649;28;45343;-75
2023/08/29 10:02:47;;;;;;;;;4.67;3.67;;;;;32.83;39.39;100449.66;5072550;28;45504;-76
2023/08/29 10:05:14;;;;;;;;;2.00;2.00;;;;;32.79;36.33;100431.88;5076450;27;46430;-75
2023/08/29 10:07:46;;;;;;;;;6.67;3.33;;;;;32.64;39.17;100417.50;5076418;28;46255;-79
2023/08/29 10:10:12;;;;;;;;;4.33;4.33;;;;;32.61;38.19;100436.63;5042111;28;45440;-74
2023/08/29 10:12:39;;;;;;;;;6.67;6.00;;;;;32.08;38.29;100432.72;5071501;27;45503;-77
2023/08/29 10:15:06;;;;;;;;;5.33;5.00;;;;;31.50;38.90;100412.81;5057212;28;45411;-75
2023/08/29 10:17:36;;;;;;;;;3.67;3.67;;;;;31.07;40.29;100386.47;5068984;28;45535;-75
2023/08/29 10:20:08;;;;;;;;;5.33;4.33;;;;;30.69;38.87;100429.94;5055851;28;45577;-75
2023/08/29 10:22:36;;;;;;;;;4.33;4.33;;;;;30.41;40.28;100429.75;5065964;27;45419;-78
2023/08/29 10:25:03;;;;;;;;;7.00;5.67;;;;;30.32;40.98;100423.91;5073461;28;45411;-77
2023/08/29 10:27:30;;;;;;;;;4.00;4.00;;;;;30.08;40.46;100420.69;5075487;27;46422;-75
2023/08/29 10:29:56;;;;;;;;;6.00;6.00;;;;;30.36;40.48;100412.94;5072125;28;45519;-75
2023/08/29 10:32:25;;;;;;;;;6.00;4.00;;;;;30.92;40.76;100417.91;5073641;27;45545;-79
2023/08/29 10:34:51;;;;;;;;;4.67;4.33;;;;;31.16;40.62;100419.25;5076373;28;45496;-74
2023/08/29 10:37:20;;;;;;;;;4.67;4.67;;;;;31.08;39.02;100398.16;5058296;28;45538;-76
2023/08/29 10:39:46;;;;;;;;;4.67;4.00;;;;;30.95;39.12;100395.28;5059884;28;45368;-75
2023/08/29 10:42:15;;;;;;;;;3.33;3.00;;;;;30.77;39.58;100412.47;5071670;27;45570;-74
2023/08/29 10:44:43;;;;;;;;;4.67;4.00;;;;;30.36;38.62;100405.72;5056613;28;45339;-74
2023/08/29 10:47:30;;;;;;;;;3.67;3.67;;;;;29.92;40.86;100412.53;5071465;27;46846;-75
2023/08/29 10:50:05;;;;;;;;;5.00;4.00;;;;;29.90;40.67;100417.13;5056694;28;45609;-76
2023/08/29 10:52:38;;;;;;;;;5.67;4.00;;;;;29.88;40.55;100412.75;5054636;27;45374;-77
2023/08/29 10:55:20;;;;;;;;;4.00;4.00;;;;;29.77;41.01;100402.56;5056667;28;45391;-74
2023/08/29 10:57:46;;;;;;;;;6.00;5.00;;;;;29.43;40.91;100401.59;5068249;27;45476;-76
2023/08/29 11:00:20;;;;;;;;;4.33;4.00;;;;;29.14;42.51;100417.34;5055810;28;45549;-77
2023/08/29 11:02:47;;;;;;;;;3.67;3.00;;;;;28.78;43.85;100421.81;5070993;27;45594;-75
2023/08/29 11:05:15;;;;;;;;;5.67;5.00;;;;;28.53;44.18;100412.19;5060325;28;45499;-76
2023/08/29 11:07:41;;;;;;;;;4.67;4.67;;;;;28.16;45.38;100409.38;5075551;27;45525;-75
2023/08/29 11:10:15;;;;;;;;;7.00;7.00;;;;;28.15;45.38;100409.44;5064206;28;45425;-76
2023/08/29 11:13:06;;;;;;;;;9.33;6.67;;;;;28.25;45.08;100408.09;5068656;27;45467;-75
2023/08/29 11:16:01;;;;;;;;;8.00;7.00;;;;;28.61;45.28;100402.00;5055932;28;45485;-75
2023/08/29 11:18:32;;;;;;;;;6.00;6.00;;;;;28.72;43.87;100396.09;5025275;28;45474;-75
2023/08/29 11:21:08;;;;;;;;;7.00;6.00;;;;;29.02;44.21;100406.31;5054743;28;45541;-74
2023/08/29 11:23:38;;;;;;;;;7.00;5.67;;;;;29.08;44.42;100398.78;5056499;28;45828;-75